Terminal Aerodrome Forecast
Issued by NWS

Current Version | Previous Version | Text Only | Print | Product List | Glossary On
Versions: 1 2 3 4 5 6 7 8 9 10 11 12 13 14 15 16 17 18 19
000
FTUS42 KTAE 310525
TAFABY
TAF
KABY 310525Z 3106/0106 20004KT P6SM SCT040 BKN250
     FM311000 00000KT 5SM BR SCT002
     FM311300 22007KT P6SM SCT025
     FM311800 23007KT P6SM VCTS BKN035CB
     FM010000 18004KT P6SM SCT030 BKN100=

USA.gov is the U.S. government's official web portal to all federal, state and local government web resources and services.